sensor_id;sensor_type;location;lat;lon;timestamp;pressure;altitude;pressure_sealevel;temperature;humidity
62708;BME280;48769;51.624;5.886;2023-07-30T00:01:11;100782.41;;;16.17;100.00
62708;BME280;48769;51.624;5.886;2023-07-30T00:03:37;100782.28;;;16.19;100.00
62708;BME280;48769;51.624;5.886;2023-07-30T00:06:02;100790.53;;;16.16;100.00
62708;BME280;48769;51.624;5.886;2023-07-30T00:08:28;100788.53;;;16.06;100.00
62708;BME280;48769;51.624;5.886;2023-07-30T00:10:53;100793.13;;;16.04;100.00
62708;BME280;48769;51.624;5.886;2023-07-30T00:13:18;100800.19;;;16.05;100.00
62708;BME280;48769;51.624;5.886;2023-07-30T00:15:47;100791.22;;;16.06;100.00
62708;BME280;48769;51.624;5.886;2023-07-30T00:18:13;100780.56;;;16.06;100.00
62708;BME280;48769;51.624;5.886;2023-07-30T00:20:38;100777.28;;;16.03;100.00
62708;BME280;48769;51.624;5.886;2023-07-30T00:23:04;100779.81;;;16.04;100.00
62708;BME280;48769;51.624;5.886;2023-07-30T00:25:29;100781.00;;;16.00;100.00
62708;BME280;48769;51.624;5.886;2023-07-30T00:27:54;100777.81;;;15.95;100.00
62708;BME280;48769;51.624;5.886;2023-07-30T00:30:20;100778.06;;;15.92;100.00
62708;BME280;48769;51.624;5.886;2023-07-30T00:32:45;100778.06;;;15.92;100.00
62708;BME280;48769;51.624;5.886;2023-07-30T00:35:10;100785.34;;;15.90;100.00
62708;BME280;48769;51.624;5.886;2023-07-30T00:37:36;100784.50;;;15.89;100.00
62708;BME280;48769;51.624;5.886;2023-07-30T00:40:02;100781.94;;;15.88;100.00
62708;BME280;48769;51.624;5.886;2023-07-30T00:42:28;100780.22;;;15.87;100.00
62708;BME280;48769;51.624;5.886;2023-07-30T00:44:53;100783.75;;;15.87;100.00
62708;BME280;48769;51.624;5.886;2023-07-30T00:47:19;100783.22;;;15.82;100.00
62708;BME280;48769;51.624;5.886;2023-07-30T00:49:45;100790.28;;;15.83;100.00
62708;BME280;48769;51.624;5.886;2023-07-30T00:52:11;100792.59;;;15.88;100.00
62708;BME280;48769;51.624;5.886;2023-07-30T00:54:36;100798.13;;;15.85;100.00
62708;BME280;48769;51.624;5.886;2023-07-30T00:57:02;100793.25;;;15.79;100.00
62708;BME280;48769;51.624;5.886;2023-07-30T00:59:27;100796.91;;;15.78;100.00
62708;BME280;48769;51.624;5.886;2023-07-30T01:01:53;100801.38;;;15.77;100.00
62708;BME280;48769;51.624;5.886;2023-07-30T01:04:18;100798.81;;;15.76;100.00
62708;BME280;48769;51.624;5.886;2023-07-30T01:06:44;100797.34;;;15.72;100.00
62708;BME280;48769;51.624;5.886;2023-07-30T01:09:10;100804.38;;;15.73;100.00
62708;BME280;48769;51.624;5.886;2023-07-30T01:11:36;100797.34;;;15.72;100.00
62708;BME280;48769;51.624;5.886;2023-07-30T01:14:03;100806.19;;;15.72;100.00
62708;BME280;48769;51.624;5.886;2023-07-30T01:16:28;100810.78;;;15.70;100.00
62708;BME280;48769;51.624;5.886;2023-07-30T01:18:54;100810.66;;;15.72;100.00
62708;BME280;48769;51.624;5.886;2023-07-30T01:21:19;100805.34;;;15.72;100.00
62708;BME280;48769;51.624;5.886;2023-07-30T01:23:44;100805.34;;;15.72;100.00
62708;BME280;48769;51.624;5.886;2023-07-30T01:26:19;100813.53;;;15.69;100.00
62708;BME280;48769;51.624;5.886;2023-07-30T01:28:49;100809.47;;;15.63;100.00
62708;BME280;48769;51.624;5.886;2023-07-30T01:31:18;100804.16;;;15.63;100.00
62708;BME280;48769;51.624;5.886;2023-07-30T01:33:47;100805.97;;;15.62;100.00
62708;BME280;48769;51.624;5.886;2023-07-30T01:36:15;100815.69;;;15.63;100.00
62708;BME280;48769;51.624;5.886;2023-07-30T01:38:42;100815.78;;;15.62;100.00
62708;BME280;48769;51.624;5.886;2023-07-30T01:41:08;100819.50;;;15.59;100.00
62708;BME280;48769;51.624;5.886;2023-07-30T01:43:34;100816.34;;;15.54;100.00
62708;BME280;48769;51.624;5.886;2023-07-30T01:45:59;100827.84;;;15.55;100.00
62708;BME280;48769;51.624;5.886;2023-07-30T01:48:25;100824.56;;;15.51;100.00
62708;BME280;48769;51.624;5.886;2023-07-30T01:50:50;100828.28;;;15.49;100.00
62708;BME280;48769;51.624;5.886;2023-07-30T01:53:15;100838.94;;;15.49;100.00
62708;BME280;48769;51.624;5.886;2023-07-30T01:55:40;100833.00;;;15.45;100.00
62708;BME280;48769;51.624;5.886;2023-07-30T01:58:09;100840.00;;;15.46;100.00
62708;BME280;48769;51.624;5.886;2023-07-30T02:00:35;100838.53;;;15.42;100.00
62708;BME280;48769;51.624;5.886;2023-07-30T02:03:00;100835.88;;;15.42;100.00
62708;BME280;48769;51.624;5.886;2023-07-30T02:05:26;100828.84;;;15.41;100.00
62708;BME280;48769;51.624;5.886;2023-07-30T02:07:51;100828.09;;;15.39;100.00
62708;BME280;48769;51.624;5.886;2023-07-30T02:10:16;100831.72;;;15.38;100.00
62708;BME280;48769;51.624;5.886;2023-07-30T02:12:42;100824.69;;;15.37;100.00
62708;BME280;48769;51.624;5.886;2023-07-30T02:15:07;100833.41;;;15.39;100.00
62708;BME280;48769;51.624;5.886;2023-07-30T02:17:33;100827.56;;;15.34;100.00
62708;BME280;48769;51.624;5.886;2023-07-30T02:19:58;100826.84;;;15.32;100.00
62708;BME280;48769;51.624;5.886;2023-07-30T02:22:23;100832.16;;;15.32;100.00
62708;BME280;48769;51.624;5.886;2023-07-30T02:24:49;100828.66;;;15.31;100.00
62708;BME280;48769;51.624;5.886;2023-07-30T02:27:14;100826.22;;;15.28;100.00
62708;BME280;48769;51.624;5.886;2023-07-30T02:29:39;100824.50;;;15.27;100.00
62708;BME280;48769;51.624;5.886;2023-07-30T02:32:05;100823.56;;;15.28;100.00
62708;BME280;48769;51.624;5.886;2023-07-30T02:34:31;100820.28;;;15.25;100.00
62708;BME280;48769;51.624;5.886;2023-07-30T02:36:56;100819.63;;;15.21;100.00
62708;BME280;48769;51.624;5.886;2023-07-30T02:39:21;100816.31;;;15.17;100.00
62708;BME280;48769;51.624;5.886;2023-07-30T02:41:47;100811.97;;;15.16;100.00
62708;BME280;48769;51.624;5.886;2023-07-30T02:44:12;100813.91;;;15.14;100.00
62708;BME280;48769;51.624;5.886;2023-07-30T02:46:37;100809.00;;;15.08;100.00
62708;BME280;48769;51.624;5.886;2023-07-30T02:49:03;100814.75;;;15.02;100.00
62708;BME280;48769;51.624;5.886;2023-07-30T02:51:28;100804.34;;;14.99;100.00
62708;BME280;48769;51.624;5.886;2023-07-30T02:53:57;100809.88;;;14.96;100.00
62708;BME280;48769;51.624;5.886;2023-07-30T02:56:23;100813.50;;;14.95;100.00
62708;BME280;48769;51.624;5.886;2023-07-30T02:58:48;100816.03;;;14.96;100.00
62708;BME280;48769;51.624;5.886;2023-07-30T03:01:13;100814.97;;;14.99;100.00
62708;BME280;48769;51.624;5.886;2023-07-30T03:03:39;100814.00;;;15.00;100.00
62708;BME280;48769;51.624;5.886;2023-07-30T03:06:04;100812.09;;;15.02;100.00
62708;BME280;48769;51.624;5.886;2023-07-30T03:08:30;100808.38;;;15.05;100.00
62708;BME280;48769;51.624;5.886;2023-07-30T03:10:58;100815.50;;;15.04;100.00
62708;BME280;48769;51.624;5.886;2023-07-30T03:13:24;100820.59;;;15.07;100.00
62708;BME280;48769;51.624;5.886;2023-07-30T03:15:49;100823.03;;;15.10;100.00
62708;BME280;48769;51.624;5.886;2023-07-30T03:18:14;100825.59;;;15.12;100.00
62708;BME280;48769;51.624;5.886;2023-07-30T03:20:40;100828.06;;;15.15;100.00
62708;BME280;48769;51.624;5.886;2023-07-30T03:23:05;100833.03;;;15.19;100.00
62708;BME280;48769;51.624;5.886;2023-07-30T03:25:30;100834.50;;;15.24;100.00
62708;BME280;48769;51.624;5.886;2023-07-30T03:27:55;100832.59;;;15.26;100.00
62708;BME280;48769;51.624;5.886;2023-07-30T03:30:21;100838.47;;;15.31;100.00
62708;BME280;48769;51.624;5.886;2023-07-30T03:32:46;100839.94;;;15.35;100.00
62708;BME280;48769;51.624;5.886;2023-07-30T03:35:11;100838.97;;;15.36;100.00
62708;BME280;48769;51.624;5.886;2023-07-30T03:37:37;100836.09;;;15.39;100.00
62708;BME280;48769;51.624;5.886;2023-07-30T03:40:02;100831.38;;;15.42;100.00
62708;BME280;48769;51.624;5.886;2023-07-30T03:42:28;100841.31;;;15.40;100.00
62708;BME280;48769;51.624;5.886;2023-07-30T03:44:53;100834.19;;;15.41;100.00
62708;BME280;48769;51.624;5.886;2023-07-30T03:47:18;100839.38;;;15.42;100.00
62708;BME280;48769;51.624;5.886;2023-07-30T03:49:43;100840.00;;;15.46;100.00
62708;BME280;48769;51.624;5.886;2023-07-30T03:52:09;100841.72;;;15.47;100.00
62708;BME280;48769;51.624;5.886;2023-07-30T03:54:34;100847.06;;;15.47;100.00
62708;BME280;48769;51.624;5.886;2023-07-30T03:56:59;100853.63;;;15.54;100.00
62708;BME280;48769;51.624;5.886;2023-07-30T03:59:25;100849.16;;;15.55;100.00
62708;BME280;48769;51.624;5.886;2023-07-30T04:01:51;100842.97;;;15.54;100.00
62708;BME280;48769;51.624;5.886;2023-07-30T04:04:16;100851.47;;;15.59;100.00
62708;BME280;48769;51.624;5.886;2023-07-30T04:06:41;100847.84;;;15.60;100.00
62708;BME280;48769;51.624;5.886;2023-07-30T04:09:07;100849.56;;;15.61;100.00
62708;BME280;48769;51.624;5.886;2023-07-30T04:11:33;100851.03;;;15.65;100.00
62708;BME280;48769;51.624;5.886;2023-07-30T04:13:58;100847.66;;;15.63;100.00
62708;BME280;48769;51.624;5.886;2023-07-30T04:16:23;100857.41;;;15.63;100.00
62708;BME280;48769;51.624;5.886;2023-07-30T04:18:49;100853.81;;;15.64;100.00
62708;BME280;48769;51.624;5.886;2023-07-30T04:21:14;100859.00;;;15.65;100.00
62708;BME280;48769;51.624;5.886;2023-07-30T04:23:40;100852.97;;;15.63;100.00
62708;BME280;48769;51.624;5.886;2023-07-30T04:26:05;100858.94;;;15.67;100.00
62708;BME280;48769;51.624;5.886;2023-07-30T04:28:31;100859.56;;;15.71;100.00
62708;BME280;48769;51.624;5.886;2023-07-30T04:30:56;100867.44;;;15.72;100.00
62708;BME280;48769;51.624;5.886;2023-07-30T04:33:21;100873.59;;;15.73;100.00
62708;BME280;48769;51.624;5.886;2023-07-30T04:35:47;100860.41;;;15.71;100.00
62708;BME280;48769;51.624;5.886;2023-07-30T04:38:12;100859.13;;;15.77;100.00
62708;BME280;48769;51.624;5.886;2023-07-30T04:40:38;100861.78;;;15.77;100.00
62708;BME280;48769;51.624;5.886;2023-07-30T04:43:03;100862.50;;;15.79;100.00
62708;BME280;48769;51.624;5.886;2023-07-30T04:45:29;100869.78;;;15.77;100.00
62708;BME280;48769;51.624;5.886;2023-07-30T04:47:54;100886.38;;;15.80;100.00
62708;BME280;48769;51.624;5.886;2023-07-30T04:50:19;100872.09;;;15.81;100.00
62708;BME280;48769;51.624;5.886;2023-07-30T04:52:45;100870.81;;;15.87;100.00
62708;BME280;48769;51.624;5.886;2023-07-30T04:55:10;100868.25;;;15.85;100.00
62708;BME280;48769;51.624;5.886;2023-07-30T04:57:36;100864.00;;;15.83;100.00
62708;BME280;48769;51.624;5.886;2023-07-30T05:00:01;100869.13;;;15.86;100.00
62708;BME280;48769;51.624;5.886;2023-07-30T05:02:27;100877.72;;;15.89;100.00
62708;BME280;48769;51.624;5.886;2023-07-30T05:04:52;100882.31;;;15.87;100.00
62708;BME280;48769;51.624;5.886;2023-07-30T05:07:17;100883.06;;;15.89;100.00
62708;BME280;48769;51.624;5.886;2023-07-30T05:09:43;100873.25;;;15.90;100.00
62708;BME280;48769;51.624;5.886;2023-07-30T05:12:08;100875.69;;;15.93;100.00
62708;BME280;48769;51.624;5.886;2023-07-30T05:14:33;100868.19;;;15.98;100.00
62708;BME280;48769;51.624;5.886;2023-07-30T05:16:59;100876.94;;;16.00;100.00
62708;BME280;48769;51.624;5.886;2023-07-30T05:19:24;100878.31;;;16.06;100.00
62708;BME280;48769;51.624;5.886;2023-07-30T05:21:49;100877.72;;;16.13;100.00
62708;BME280;48769;51.624;5.886;2023-07-30T05:24:14;100882.81;;;16.17;100.00
62708;BME280;48769;51.624;5.886;2023-07-30T05:26:40;100887.94;;;16.20;100.00
62708;BME280;48769;51.624;5.886;2023-07-30T05:29:05;100889.84;;;16.18;100.00
62708;BME280;48769;51.624;5.886;2023-07-30T05:31:30;100893.25;;;16.20;100.00
62708;BME280;48769;51.624;5.886;2023-07-30T05:33:55;100899.44;;;16.20;100.00
62708;BME280;48769;51.624;5.886;2023-07-30T05:36:21;100893.50;;;16.17;100.00
62708;BME280;48769;51.624;5.886;2023-07-30T05:38:46;100890.91;;;16.15;100.00
62708;BME280;48769;51.624;5.886;2023-07-30T05:41:11;100888.91;;;16.19;100.00
62708;BME280;48769;51.624;5.886;2023-07-30T05:43:37;100894.25;;;16.19;100.00
62708;BME280;48769;51.624;5.886;2023-07-30T05:46:02;100892.41;;;16.19;100.00
62708;BME280;48769;51.624;5.886;2023-07-30T05:48:27;100892.06;;;16.24;100.00
62708;BME280;48769;51.624;5.886;2023-07-30T05:50:52;100899.84;;;16.27;100.00
62708;BME280;48769;51.624;5.886;2023-07-30T05:53:18;100897.31;;;16.25;100.00
62708;BME280;48769;51.624;5.886;2023-07-30T05:55:43;100901.53;;;16.28;100.00
62708;BME280;48769;51.624;5.886;2023-07-30T05:58:08;100901.53;;;16.28;100.00
62708;BME280;48769;51.624;5.886;2023-07-30T06:00:33;100897.69;;;16.32;100.00
62708;BME280;48769;51.624;5.886;2023-07-30T06:02:59;100903.75;;;16.34;100.00
62708;BME280;48769;51.624;5.886;2023-07-30T06:05:24;100895.63;;;16.35;100.00
62708;BME280;48769;51.624;5.886;2023-07-30T06:07:49;100896.25;;;16.39;100.00
62708;BME280;48769;51.624;5.886;2023-07-30T06:10:15;100897.22;;;16.38;100.00
62708;BME280;48769;51.624;5.886;2023-07-30T06:12:40;100905.94;;;16.40;100.00
62708;BME280;48769;51.624;5.886;2023-07-30T06:15:06;100893.38;;;16.42;100.00
62708;BME280;48769;51.624;5.886;2023-07-30T06:17:32;100901.84;;;16.47;100.00
62708;BME280;48769;51.624;5.886;2023-07-30T06:19:57;100904.41;;;16.49;100.00
62708;BME280;48769;51.624;5.886;2023-07-30T06:22:22;100906.50;;;16.56;100.00
62708;BME280;48769;51.624;5.886;2023-07-30T06:24:47;100898.50;;;16.56;100.00
62708;BME280;48769;51.624;5.886;2023-07-30T06:27:13;100903.72;;;16.58;100.00
62708;BME280;48769;51.624;5.886;2023-07-30T06:29:38;100903.13;;;16.66;100.00
62708;BME280;48769;51.624;5.886;2023-07-30T06:32:04;100898.53;;;16.68;100.00
62708;BME280;48769;51.624;5.886;2023-07-30T06:34:29;100905.34;;;16.72;100.00
62708;BME280;48769;51.624;5.886;2023-07-30T06:36:54;100903.41;;;16.74;100.00
62708;BME280;48769;51.624;5.886;2023-07-30T06:39:20;100898.41;;;16.69;100.00
62708;BME280;48769;51.624;5.886;2023-07-30T06:41:46;100908.97;;;16.71;100.00
62708;BME280;48769;51.624;5.886;2023-07-30T06:44:11;100897.88;;;16.77;100.00
62708;BME280;48769;51.624;5.886;2023-07-30T06:46:36;100902.47;;;16.86;100.00
62708;BME280;48769;51.624;5.886;2023-07-30T06:49:02;100907.72;;;16.88;100.00
62708;BME280;48769;51.624;5.886;2023-07-30T06:51:27;100903.00;;;16.91;100.00
62708;BME280;48769;51.624;5.886;2023-07-30T06:53:53;100909.31;;;16.90;100.00
62708;BME280;48769;51.624;5.886;2023-07-30T06:56:18;100909.91;;;16.94;100.00
62708;BME280;48769;51.624;5.886;2023-07-30T06:58:43;100905.19;;;16.97;100.00
62708;BME280;48769;51.624;5.886;2023-07-30T07:01:08;100912.47;;;17.07;100.00
62708;BME280;48769;51.624;5.886;2023-07-30T07:03:34;100911.03;;;17.14;100.00
62708;BME280;48769;51.624;5.886;2023-07-30T07:05:59;100913.94;;;17.22;100.00
62708;BME280;48769;51.624;5.886;2023-07-30T07:08:24;100915.91;;;17.42;100.00
62708;BME280;48769;51.624;5.886;2023-07-30T07:10:50;100915.66;;;17.79;100.00
62708;BME280;48769;51.624;5.886;2023-07-30T07:13:15;100913.69;;;17.92;100.00
62708;BME280;48769;51.624;5.886;2023-07-30T07:15:42;100905.63;;;18.15;100.00
62708;BME280;48769;51.624;5.886;2023-07-30T07:18:07;100903.78;;;18.15;100.00
62708;BME280;48769;51.624;5.886;2023-07-30T07:20:33;100900.91;;;18.07;100.00
62708;BME280;48769;51.624;5.886;2023-07-30T07:22:58;100905.81;;;18.23;100.00
62708;BME280;48769;51.624;5.886;2023-07-30T07:25:23;100905.97;;;18.42;100.00
62708;BME280;48769;51.624;5.886;2023-07-30T07:27:49;100900.00;;;18.71;100.00
62708;BME280;48769;51.624;5.886;2023-07-30T07:30:14;100908.94;;;18.92;100.00
62708;BME280;48769;51.624;5.886;2023-07-30T07:32:40;100904.38;;;19.14;100.00
62708;BME280;48769;51.624;5.886;2023-07-30T07:35:06;100912.88;;;19.19;100.00
62708;BME280;48769;51.624;5.886;2023-07-30T07:37:32;100906.88;;;20.27;100.00
62708;BME280;48769;51.624;5.886;2023-07-30T07:39:58;100912.38;;;21.03;100.00
62708;BME280;48769;51.624;5.886;2023-07-30T07:42:23;100902.13;;;21.36;100.00
62708;BME280;48769;51.624;5.886;2023-07-30T07:44:49;100908.16;;;21.38;100.00
62708;BME280;48769;51.624;5.886;2023-07-30T07:47:15;100905.00;;;21.05;100.00
62708;BME280;48769;51.624;5.886;2023-07-30T07:49:40;100921.28;;;20.94;100.00
62708;BME280;48769;51.624;5.886;2023-07-30T07:52:06;100915.91;;;20.94;100.00
62708;BME280;48769;51.624;5.886;2023-07-30T07:54:31;100921.88;;;20.78;100.00
62708;BME280;48769;51.624;5.886;2023-07-30T07:56:57;100914.38;;;20.33;100.00
62708;BME280;48769;51.624;5.886;2023-07-30T07:59:23;100918.72;;;20.24;100.00
62708;BME280;48769;51.624;5.886;2023-07-30T08:01:48;100928.84;;;20.01;100.00
62708;BME280;48769;51.624;5.886;2023-07-30T08:04:13;100917.53;;;19.88;100.00
62708;BME280;48769;51.624;5.886;2023-07-30T08:06:39;100914.13;;;19.67;100.00
62708;BME280;48769;51.624;5.886;2023-07-30T08:09:04;100919.94;;;19.51;100.00
62708;BME280;48769;51.624;5.886;2023-07-30T08:11:30;100914.84;;;19.48;100.00
62708;BME280;48769;51.624;5.886;2023-07-30T08:13:55;100924.72;;;19.47;100.00
62708;BME280;48769;51.624;5.886;2023-07-30T08:16:22;100924.84;;;19.46;100.00
62708;BME280;48769;51.624;5.886;2023-07-30T08:18:47;100926.91;;;19.32;100.00
62708;BME280;48769;51.624;5.886;2023-07-30T08:21:13;100924.59;;;19.18;100.00
62708;BME280;48769;51.624;5.886;2023-07-30T08:23:38;100926.03;;;19.01;100.00
62708;BME280;48769;51.624;5.886;2023-07-30T08:26:03;100934.44;;;18.97;100.00
62708;BME280;48769;51.624;5.886;2023-07-30T08:28:29;100927.59;;;19.04;100.00
62708;BME280;48769;51.624;5.886;2023-07-30T08:31:02;100925.88;;;19.24;100.00
62708;BME280;48769;51.624;5.886;2023-07-30T08:33:28;100927.16;;;19.29;100.00
62708;BME280;48769;51.624;5.886;2023-07-30T08:35:58;100931.34;;;19.53;100.00
62708;BME280;48769;51.624;5.886;2023-07-30T08:38:23;100931.72;;;19.69;100.00
62708;BME280;48769;51.624;5.886;2023-07-30T08:40:49;100927.38;;;19.68;100.00
62708;BME280;48769;51.624;5.886;2023-07-30T08:43:15;100940.97;;;19.55;100.00
62708;BME280;48769;51.624;5.886;2023-07-30T08:45:40;100937.81;;;19.41;100.00
62708;BME280;48769;51.624;5.886;2023-07-30T08:48:06;100929.69;;;19.21;100.00
62708;BME280;48769;51.624;5.886;2023-07-30T08:50:31;100938.66;;;19.20;100.00
62708;BME280;48769;51.624;5.886;2023-07-30T08:52:59;100932.88;;;19.15;100.00
62708;BME280;48769;51.624;5.886;2023-07-30T08:55:26;100935.03;;;19.21;100.00
62708;BME280;48769;51.624;5.886;2023-07-30T08:57:54;100935.53;;;19.36;100.00
62708;BME280;48769;51.624;5.886;2023-07-30T09:00:24;100933.34;;;19.51;100.00
62708;BME280;48769;51.624;5.886;2023-07-30T09:02:52;100936.06;;;19.60;100.00
62708;BME280;48769;51.624;5.886;2023-07-30T09:05:20;100939.66;;;19.50;100.00
62708;BME280;48769;51.624;5.886;2023-07-30T09:07:45;100932.56;;;19.39;100.00
62708;BME280;48769;51.624;5.886;2023-07-30T09:10:12;100947.16;;;19.25;100.00
62708;BME280;48769;51.624;5.886;2023-07-30T09:12:38;100947.97;;;19.16;100.00
62708;BME280;48769;51.624;5.886;2023-07-30T09:15:05;100940.13;;;19.03;100.00
62708;BME280;48769;51.624;5.886;2023-07-30T09:17:31;100951.00;;;19.02;100.00
62708;BME280;48769;51.624;5.886;2023-07-30T09:19:59;100956.53;;;19.10;100.00
62708;BME280;48769;51.624;5.886;2023-07-30T09:22:25;100952.59;;;19.14;100.00
62708;BME280;48769;51.624;5.886;2023-07-30T09:24:55;100942.03;;;19.12;100.00
62708;BME280;48769;51.624;5.886;2023-07-30T09:27:22;100960.03;;;19.10;100.00
62708;BME280;48769;51.624;5.886;2023-07-30T09:30:06;100945.75;;;19.00;100.00
62708;BME280;48769;51.624;5.886;2023-07-30T09:32:33;100946.41;;;18.92;100.00
62708;BME280;48769;51.624;5.886;2023-07-30T09:35:07;100948.34;;;18.90;100.00
62708;BME280;48769;51.624;5.886;2023-07-30T09:37:41;100953.72;;;18.90;100.00
62708;BME280;48769;51.624;5.886;2023-07-30T09:40:07;100961.16;;;18.87;100.00
62708;BME280;48769;51.624;5.886;2023-07-30T09:42:34;100952.75;;;18.91;100.00
62708;BME280;48769;51.624;5.886;2023-07-30T09:45:03;100957.63;;;19.07;100.00
62708;BME280;48769;51.624;5.886;2023-07-30T09:47:30;100964.34;;;19.44;100.00
62708;BME280;48769;51.624;5.886;2023-07-30T09:49:55;100966.03;;;19.75;100.00
62708;BME280;48769;51.624;5.886;2023-07-30T09:52:21;100958.22;;;20.03;100.00
62708;BME280;48769;51.624;5.886;2023-07-30T09:54:49;100956.00;;;20.27;100.00
62708;BME280;48769;51.624;5.886;2023-07-30T09:57:15;100953.81;;;20.52;100.00
62708;BME280;48769;51.624;5.886;2023-07-30T09:59:40;100948.84;;;20.67;100.00
62708;BME280;48769;51.624;5.886;2023-07-30T10:02:07;100940.38;;;20.91;100.00
62708;BME280;48769;51.624;5.886;2023-07-30T10:04:34;100934.25;;;21.08;100.00
62708;BME280;48769;51.624;5.886;2023-07-30T10:07:04;100926.94;;;20.91;100.00
62708;BME280;48769;51.624;5.886;2023-07-30T10:09:40;100927.97;;;20.70;100.00
62708;BME280;48769;51.624;5.886;2023-07-30T10:12:12;100931.19;;;20.45;100.00
62708;BME280;48769;51.624;5.886;2023-07-30T10:14:38;100940.91;;;20.26;100.00
62708;BME280;48769;51.624;5.886;2023-07-30T10:17:04;100943.00;;;20.03;100.00
62708;BME280;48769;51.624;5.886;2023-07-30T10:19:30;100935.91;;;19.93;100.00
62708;BME280;48769;51.624;5.886;2023-07-30T10:24:38;100941.50;;;19.70;100.00
62708;BME280;48769;51.624;5.886;2023-07-30T10:27:07;100939.19;;;19.66;100.00
62708;BME280;48769;51.624;5.886;2023-07-30T10:29:39;100942.75;;;19.66;100.00
62708;BME280;48769;51.624;5.886;2023-07-30T10:32:06;100951.56;;;19.57;100.00
62708;BME280;48769;51.624;5.886;2023-07-30T10:34:45;100960.78;;;19.64;100.00
62708;BME280;48769;51.624;5.886;2023-07-30T10:37:17;100962.66;;;19.73;100.00
62708;BME280;48769;51.624;5.886;2023-07-30T10:39:43;100968.44;;;19.78;100.00
62708;BME280;48769;51.624;5.886;2023-07-30T10:42:08;100984.69;;;19.77;100.00
62708;BME280;48769;51.624;5.886;2023-07-30T10:44:34;100981.22;;;19.65;100.00
62708;BME280;48769;51.624;5.886;2023-07-30T10:47:01;100988.13;;;19.37;100.00
62708;BME280;48769;51.624;5.886;2023-07-30T10:49:28;100996.91;;;19.18;100.00
62708;BME280;48769;51.624;5.886;2023-07-30T10:51:55;101017.69;;;18.94;100.00
62708;BME280;48769;51.624;5.886;2023-07-30T10:54:21;101006.34;;;18.69;100.00
62708;BME280;48769;51.624;5.886;2023-07-30T10:56:47;101022.69;;;18.55;100.00
62708;BME280;48769;51.624;5.886;2023-07-30T10:59:13;101025.91;;;18.37;100.00
62708;BME280;48769;51.624;5.886;2023-07-30T11:01:43;101018.41;;;18.20;100.00
62708;BME280;48769;51.624;5.886;2023-07-30T11:04:19;101017.66;;;18.07;100.00
62708;BME280;48769;51.624;5.886;2023-07-30T11:06:46;101018.19;;;18.01;100.00
62708;BME280;48769;51.624;5.886;2023-07-30T11:09:26;101014.03;;;18.08;100.00
62708;BME280;48769;51.624;5.886;2023-07-30T11:11:54;101007.66;;;18.31;100.00
62708;BME280;48769;51.624;5.886;2023-07-30T11:14:21;101022.34;;;18.48;100.00
62708;BME280;48769;51.624;5.886;2023-07-30T11:19:13;101021.72;;;18.56;100.00
62708;BME280;48769;51.624;5.886;2023-07-30T11:21:55;101015.00;;;18.61;100.00
62708;BME280;48769;51.624;5.886;2023-07-30T11:24:22;101016.56;;;18.64;100.00
62708;BME280;48769;51.624;5.886;2023-07-30T11:26:59;101014.75;;;18.64;100.00
62708;BME280;48769;51.624;5.886;2023-07-30T11:29:24;101009.88;;;18.69;100.00
62708;BME280;48769;51.624;5.886;2023-07-30T11:31:50;101010.69;;;18.81;100.00
62708;BME280;48769;51.624;5.886;2023-07-30T11:34:15;101011.91;;;18.88;100.00
62708;BME280;48769;51.624;5.886;2023-07-30T11:36:43;101006.72;;;18.97;100.00
62708;BME280;48769;51.624;5.886;2023-07-30T11:39:09;101008.75;;;19.04;100.00
62708;BME280;48769;51.624;5.886;2023-07-30T11:41:35;101016.19;;;19.01;100.00
62708;BME280;48769;51.624;5.886;2023-07-30T11:44:00;101017.53;;;19.06;100.00
62708;BME280;48769;51.624;5.886;2023-07-30T11:46:26;101022.50;;;19.11;100.00
62708;BME280;48769;51.624;5.886;2023-07-30T11:48:53;101019.75;;;19.22;100.00
62708;BME280;48769;51.624;5.886;2023-07-30T11:51:27;101022.59;;;19.51;100.00
62708;BME280;48769;51.624;5.886;2023-07-30T11:54:00;101030.84;;;19.80;100.00
62708;BME280;48769;51.624;5.886;2023-07-30T11:56:30;101027.22;;;20.01;100.00
62708;BME280;48769;51.624;5.886;2023-07-30T11:58:58;101020.09;;;20.21;100.00
62708;BME280;48769;51.624;5.886;2023-07-30T12:01:25;101027.19;;;20.31;100.00
62708;BME280;48769;51.624;5.886;2023-07-30T12:03:57;101029.53;;;20.56;100.00
62708;BME280;48769;51.624;5.886;2023-07-30T12:06:23;101022.91;;;20.69;100.00
62708;BME280;48769;51.624;5.886;2023-07-30T12:08:49;101020.22;;;20.89;100.00
62708;BME280;48769;51.624;5.886;2023-07-30T12:11:17;101015.97;;;20.96;100.00
62708;BME280;48769;51.624;5.886;2023-07-30T12:13:46;101025.88;;;20.86;100.00
62708;BME280;48769;51.624;5.886;2023-07-30T12:16:12;101021.34;;;20.76;100.00
62708;BME280;48769;51.624;5.886;2023-07-30T12:18:38;101023.72;;;20.60;100.00
62708;BME280;48769;51.624;5.886;2023-07-30T12:21:05;101028.63;;;20.45;100.00
62708;BME280;48769;51.624;5.886;2023-07-30T12:23:33;101021.59;;;20.44;100.00
62708;BME280;48769;51.624;5.886;2023-07-30T12:25:58;101021.66;;;20.73;100.00
62708;BME280;48769;51.624;5.886;2023-07-30T12:28:24;101021.66;;;20.93;100.00
62708;BME280;48769;51.624;5.886;2023-07-30T12:30:49;101009.34;;;21.10;100.00
62708;BME280;48769;51.624;5.886;2023-07-30T12:33:14;101012.00;;;21.19;100.00
62708;BME280;48769;51.624;5.886;2023-07-30T12:35:40;101011.44;;;21.26;100.00
62708;BME280;48769;51.624;5.886;2023-07-30T12:38:05;100998.97;;;21.44;100.00
62708;BME280;48769;51.624;5.886;2023-07-30T12:40:30;100994.63;;;21.70;100.00